Time;durP1;ratioP1;P1;durP2;ratioP2;P2;SDS_P1;SDS_P2;PMS_P1;PMS_P2;Temp;Humidity;BMP_temperature;BMP_pressure;BME280_temperature;BME280_humidity;BME280_pressure;Samples;Min_cycle;Max_cycle;Signal;HPM_P1;HPM_P2
2021/12/23 00:02:06;;;;;;;18.10;11.48;;;;;;;0.05;100.00;101631.31;5114317;28;20593;-38
2021/12/23 00:04:34;;;;;;;19.23;11.70;;;;;;;0.03;100.00;101628.78;5115708;28;20101;-34
2021/12/23 00:07:02;;;;;;;19.30;12.35;;;;;;;0.04;100.00;101635.97;5114925;28;20485;-37
2021/12/23 00:09:53;;;;;;;17.73;11.63;;;;;;;0.07;100.00;101621.81;5114904;28;20062;-33
2021/12/23 00:12:20;;;;;;;21.55;12.50;;;;;;;0.09;100.00;101647.16;5115144;28;20520;-33
2021/12/23 00:14:50;;;;;;;19.45;12.20;;;;;;;0.07;100.00;101652.00;5114632;28;20523;-28
2021/12/23 00:17:25;;;;;;;17.65;11.05;;;;;;;0.11;100.00;101653.28;5113812;28;20535;-32
2021/12/23 00:23:21;;;;;;;17.08;10.98;;;;;;;0.13;100.00;101648.44;5115493;28;20225;-36
2021/12/23 00:25:32;;;;;;;18.88;11.07;;;;;;;0.17;100.00;101655.19;5115506;28;20050;-33
2021/12/23 00:28:01;;;;;;;20.33;12.52;;;;;;;0.13;100.00;101653.06;5114788;28;20067;-36
2021/12/23 00:30:30;;;;;;;20.35;11.98;;;;;;;0.12;100.00;101634.91;5114535;28;20138;-31
2021/12/23 00:32:57;;;;;;;18.92;11.55;;;;;;;0.12;100.00;101630.28;5114723;27;20047;-32
2021/12/23 00:35:25;;;;;;;20.80;11.10;;;;;;;0.11;100.00;101623.09;5114601;28;20074;-32
2021/12/23 00:37:59;;;;;;;19.88;12.18;;;;;;;0.12;100.00;101610.22;5103949;28;20396;-38
2021/12/23 00:40:27;;;;;;;18.58;11.60;;;;;;;0.11;100.00;101608.53;5115245;28;20563;-37
2021/12/23 00:42:55;;;;;;;19.02;12.68;;;;;;;0.12;100.00;101607.47;5114147;28;20500;-30
2021/12/23 00:45:24;;;;;;;18.05;11.38;;;;;;;0.13;100.00;101615.50;5114358;28;20108;-34
2021/12/23 00:47:52;;;;;;;17.83;10.82;;;;;;;0.12;100.00;101604.72;5114315;28;20079;-31
2021/12/23 00:50:21;;;;;;;20.60;12.25;;;;;;;0.08;100.00;101607.06;5113800;28;20086;-30
2021/12/23 00:52:55;;;;;;;19.95;12.38;;;;;;;0.04;100.00;101597.53;5114478;28;20047;-35
2021/12/23 00:55:23;;;;;;;18.02;11.30;;;;;;;0.06;100.00;101578.97;5114541;28;20064;-34
2021/12/23 00:57:51;;;;;;;18.58;11.73;;;;;;;0.06;100.00;101565.25;5113279;28;20062;-33
2021/12/23 01:00:20;;;;;;;19.25;11.30;;;;;;;0.07;100.00;101563.34;5110745;28;20162;-35
2021/12/23 01:02:49;;;;;;;16.73;11.57;;;;;;;0.07;100.00;101577.91;5114577;28;20097;-32
2021/12/23 01:05:20;;;;;;;19.58;11.88;;;;;;;0.08;100.00;101598.81;5113494;28;20039;-31
2021/12/23 01:07:48;;;;;;;19.15;11.55;;;;;;;0.06;100.00;101589.94;5114195;28;20046;-37
2021/12/23 01:10:17;;;;;;;19.35;12.10;;;;;;;0.00;100.00;101547.75;5113760;28;20048;-30
2021/12/23 01:12:48;;;;;;;19.70;11.90;;;;;;;0.01;100.00;101510.19;5113522;28;20044;-29
2021/12/23 01:15:38;;;;;;;18.67;11.68;;;;;;;-0.01;100.00;101501.34;5111098;28;20051;-36
2021/12/23 01:18:13;;;;;;;19.77;11.98;;;;;;;-0.08;100.00;101465.69;5113967;28;20101;-36
2021/12/23 01:20:51;;;;;;;19.83;12.40;;;;;;;-0.09;100.00;101485.09;5113389;28;20046;-31
2021/12/23 01:23:20;;;;;;;19.27;12.35;;;;;;;-0.08;100.00;101503.25;5113900;28;20039;-31
2021/12/23 01:25:49;;;;;;;18.48;11.50;;;;;;;-0.08;100.00;101504.09;5113269;28;20456;-35
2021/12/23 01:28:18;;;;;;;18.83;11.95;;;;;;;-0.06;100.00;101491.00;5114027;28;20047;-30
2021/12/23 01:30:46;;;;;;;20.27;12.50;;;;;;;-0.06;100.00;101506.63;5110672;28;20135;-36
2021/12/23 01:33:16;;;;;;;23.20;12.68;;;;;;;-0.05;100.00;101520.13;5112976;28;20099;-30
2021/12/23 01:35:45;;;;;;;18.60;11.70;;;;;;;-0.03;100.00;101514.44;5113615;28;20052;-33
2021/12/23 01:38:13;;;;;;;19.42;12.15;;;;;;;0.03;100.00;101521.78;5113331;28;20048;-32
2021/12/23 01:40:40;;;;;;;16.85;10.63;;;;;;;0.06;100.00;101526.00;5113170;28;20043;-30
2021/12/23 01:43:08;;;;;;;18.73;12.05;;;;;;;0.05;100.00;101532.53;5113669;28;20496;-33
2021/12/23 01:45:45;;;;;;;18.98;12.13;;;;;;;0.04;100.00;101530.84;5113160;28;20085;-35
2021/12/23 01:48:14;;;;;;;19.30;10.98;;;;;;;0.07;100.00;101538.66;5113182;28;20062;-31
2021/12/23 01:50:43;;;;;;;15.32;10.20;;;;;;;0.12;100.00;101538.88;5112902;28;20500;-38
2021/12/23 01:53:11;;;;;;;17.70;10.48;;;;;;;0.15;100.00;101525.56;5113010;27;20400;-33
2021/12/23 01:55:42;;;;;;;18.88;11.30;;;;;;;0.17;100.00;101520.72;5112718;28;20084;-35
2021/12/23 01:58:12;;;;;;;19.80;12.02;;;;;;;0.16;100.00;101520.94;5098968;28;20465;-30
2021/12/23 02:00:43;;;;;;;16.63;10.68;;;;;;;0.16;100.00;101518.19;5108528;28;20036;-29
2021/12/23 02:03:12;;;;;;;19.23;11.77;;;;;;;0.15;100.00;101517.34;5113201;28;20059;-36
2021/12/23 02:05:42;;;;;;;20.58;11.18;;;;;;;0.14;100.00;101507.44;5112695;28;20122;-30
2021/12/23 02:08:29;;;;;;;19.02;12.02;;;;;;;0.12;100.00;101505.94;5112488;28;20043;-36
2021/12/23 02:10:58;;;;;;;21.02;12.63;;;;;;;0.11;100.00;101496.88;5112547;28;20039;-35
2021/12/23 02:13:26;;;;;;;24.35;13.05;;;;;;;0.10;100.00;101477.88;5100612;28;20052;-33
2021/12/23 02:15:54;;;;;;;22.25;12.77;;;;;;;0.10;100.00;101467.75;5105330;28;20564;-28
2021/12/23 02:18:22;;;;;;;23.00;12.85;;;;;;;0.13;100.00;101463.72;5101883;28;20047;-32
2021/12/23 02:20:53;;;;;;;19.63;11.98;;;;;;;0.16;100.00;101455.06;5112294;28;20139;-37
2021/12/23 02:23:21;;;;;;;20.60;11.90;;;;;;;0.16;100.00;101450.44;5112393;28;20044;-33
2021/12/23 02:25:49;;;;;;;20.85;12.38;;;;;;;0.18;100.00;101445.56;5112446;28;20047;-36
2021/12/23 02:28:18;;;;;;;19.95;11.88;;;;;;;0.21;100.00;101439.63;5112439;28;20412;-31
2021/12/23 02:30:51;;;;;;;19.58;12.23;;;;;;;0.24;100.00;101452.06;5111797;28;20457;-29
2021/12/23 02:33:21;;;;;;;19.45;11.40;;;;;;;0.24;100.00;101446.59;5112125;28;20200;-37
2021/12/23 02:35:51;;;;;;;16.70;10.95;;;;;;;0.23;100.00;101450.38;5112180;28;20051;-33
2021/12/23 02:38:19;;;;;;;16.73;10.05;;;;;;;0.28;100.00;101458.81;5112357;28;20040;-36
2021/12/23 02:40:47;;;;;;;15.90;10.40;;;;;;;0.29;100.00;101466.84;5112276;28;20482;-31
2021/12/23 02:43:17;;;;;;;15.95;10.15;;;;;;;0.34;100.00;101471.69;5111613;28;20051;-41
2021/12/23 02:45:46;;;;;;;18.33;11.18;;;;;;;0.38;100.00;101480.34;5112366;28;20046;-41
2021/12/23 02:48:16;;;;;;;14.30;9.68;;;;;;;0.41;100.00;101475.22;5112263;28;20504;-35
2021/12/23 02:50:46;;;;;;;14.05;8.55;;;;;;;0.44;100.00;101484.94;5093826;28;20048;-35
2021/12/23 02:53:15;;;;;;;18.38;11.60;;;;;;;0.49;100.00;101479.66;5113744;27;20063;-29
2021/12/23 02:55:45;;;;;;;17.50;11.07;;;;;;;0.49;100.00;101474.16;5132010;27;20087;-37
2021/12/23 02:58:14;;;;;;;19.92;12.15;;;;;;;0.50;100.00;101473.09;5118940;27;20074;-34
2021/12/23 03:00:44;;;;;;;21.38;12.20;;;;;;;0.49;100.00;101460.44;5129520;27;20069;-32
2021/12/23 03:03:12;;;;;;;23.08;13.43;;;;;;;0.44;100.00;101458.31;5120345;27;20058;-35
2021/12/23 03:05:40;;;;;;;20.88;12.40;;;;;;;0.44;100.00;101441.84;5127080;27;20442;-31
2021/12/23 03:08:07;;;;;;;24.02;13.85;;;;;;;0.41;100.00;101442.28;5123763;27;20039;-33
2021/12/23 03:10:36;;;;;;;21.33;12.55;;;;;;;0.41;100.00;101436.78;5132417;27;20047;-31
2021/12/23 03:13:04;;;;;;;21.65;14.00;;;;;;;0.41;100.00;101435.94;5122808;27;20137;-34
2021/12/23 03:15:32;;;;;;;23.60;13.45;;;;;;;0.41;100.00;101430.47;5114102;27;20051;-38
2021/12/23 03:18:00;;;;;;;22.35;13.02;;;;;;;0.43;100.00;101420.09;5122787;27;20043;-33
2021/12/23 03:20:28;;;;;;;23.95;13.90;;;;;;;0.41;100.00;101411.25;5122847;27;20494;-34
2021/12/23 03:22:55;;;;;;;30.70;14.15;;;;;;;0.39;100.00;101416.13;5118600;27;20047;-28
2021/12/23 03:25:23;;;;;;;23.70;14.23;;;;;;;0.36;100.00;101403.69;5120179;27;20498;-34
2021/12/23 03:27:52;;;;;;;22.38;14.63;;;;;;;0.39;100.00;101408.75;5125965;27;20049;-33
2021/12/23 03:30:20;;;;;;;22.88;13.48;;;;;;;0.41;100.00;101408.50;5104812;28;20412;-34
2021/12/23 03:32:48;;;;;;;30.45;16.00;;;;;;;0.41;100.00;101403.84;5114894;28;20408;-36
2021/12/23 03:35:22;;;;;;;22.50;14.18;;;;;;;0.42;100.00;101393.72;5127452;27;20044;-32
2021/12/23 03:37:49;;;;;;;20.73;13.32;;;;;;;0.40;100.00;101387.63;5116700;27;20496;-36
2021/12/23 03:40:17;;;;;;;25.25;14.27;;;;;;;0.40;100.00;101393.13;5123706;28;20043;-36
2021/12/23 03:42:45;;;;;;;23.35;15.05;;;;;;;0.38;100.00;101387.84;5112941;28;20062;-34
2021/12/23 03:45:14;;;;;;;23.98;15.07;;;;;;;0.37;100.00;101375.19;5118522;28;20055;-36
2021/12/23 03:47:42;;;;;;;23.52;14.45;;;;;;;0.34;100.00;101367.38;5130206;28;20043;-30
2021/12/23 03:50:10;;;;;;;24.02;14.77;;;;;;;0.34;100.00;101370.97;5124586;28;20039;-34
2021/12/23 03:52:38;;;;;;;24.25;14.23;;;;;;;0.33;100.00;101366.53;5130768;28;20039;-29
2021/12/23 03:55:06;;;;;;;21.77;13.27;;;;;;;0.36;100.00;101369.91;5123339;28;20053;-35
2021/12/23 03:57:34;;;;;;;23.67;13.77;;;;;;;0.35;100.00;101363.56;5114753;28;20047;-38
2021/12/23 04:00:01;;;;;;;21.20;13.60;;;;;;;0.31;100.00;101354.09;5119659;28;20039;-37
2021/12/23 04:02:32;;;;;;;22.70;14.48;;;;;;;0.29;100.00;101354.31;5126005;28;20050;-33
2021/12/23 04:05:00;;;;;;;26.05;14.35;;;;;;;0.26;100.00;101346.50;5121872;28;20044;-32
2021/12/23 04:07:28;;;;;;;21.20;13.93;;;;;;;0.27;100.00;101339.13;5123924;28;20051;-34
2021/12/23 04:09:56;;;;;;;22.88;14.38;;;;;;;0.26;100.00;101356.66;5122662;28;20046;-31
2021/12/23 04:12:24;;;;;;;20.27;13.10;;;;;;;0.28;100.00;101360.84;5113505;28;20483;-35
2021/12/23 04:14:52;;;;;;;23.58;14.80;;;;;;;0.25;100.00;101346.72;5127948;28;20074;-34
2021/12/23 04:17:20;;;;;;;22.25;13.55;;;;;;;0.21;100.00;101343.56;5120535;28;20504;-34
2021/12/23 04:19:49;;;;;;;23.25;15.05;;;;;;;0.18;100.00;101344.03;5125192;28;20044;-34
2021/12/23 04:22:18;;;;;;;24.27;14.63;;;;;;;0.17;100.00;101336.88;5119524;28;20054;-34
2021/12/23 04:24:46;;;;;;;25.42;14.43;;;;;;;0.16;100.00;101328.84;5125586;28;20054;-31
2021/12/23 04:27:14;;;;;;;25.52;14.77;;;;;;;0.14;100.00;101326.31;5122510;28;20056;-35
2021/12/23 04:29:42;;;;;;;24.67;15.75;;;;;;;0.11;100.00;101318.53;5114817;28;20486;-36
2021/12/23 04:32:10;;;;;;;23.52;14.48;;;;;;;0.10;100.00;101310.50;5118513;28;20526;-40
2021/12/23 04:34:37;;;;;;;24.88;14.80;;;;;;;0.11;100.00;101307.56;5127004;28;20038;-36
2021/12/23 04:37:07;;;;;;;24.40;15.52;;;;;;;0.13;100.00;101302.69;5127927;28;20142;-33
2021/12/23 04:39:34;;;;;;;24.38;15.15;;;;;;;0.11;100.00;101304.81;5113832;27;20043;-36
2021/12/23 04:42:02;;;;;;;24.98;15.10;;;;;;;0.11;100.00;101303.97;5130111;27;20133;-33
2021/12/23 04:44:30;;;;;;;27.13;15.68;;;;;;;0.10;100.00;101296.78;5115550;27;20047;-35
2021/12/23 04:46:58;;;;;;;24.65;14.45;;;;;;;0.14;100.00;101296.13;5128137;27;20043;-34
2021/12/23 04:49:25;;;;;;;24.70;14.68;;;;;;;0.14;100.00;101287.91;5134637;27;20407;-38
2021/12/23 04:51:53;;;;;;;26.67;15.55;;;;;;;0.18;100.00;101291.06;5126472;27;20100;-34
2021/12/23 04:54:22;;;;;;;27.50;15.85;;;;;;;0.16;100.00;101285.78;5135143;27;20104;-35
2021/12/23 04:56:50;;;;;;;26.05;15.93;;;;;;;0.18;100.00;101285.56;5130955;27;20115;-30
2021/12/23 04:59:18;;;;;;;26.92;15.60;;;;;;;0.18;100.00;101283.66;5120700;27;20050;-36
2021/12/23 05:01:46;;;;;;;25.52;15.43;;;;;;;0.17;100.00;101276.50;5122412;27;20054;-28
2021/12/23 05:04:14;;;;;;;24.63;15.63;;;;;;;0.17;100.00;101278.41;5125512;27;20445;-40
2021/12/23 05:06:42;;;;;;;27.48;16.45;;;;;;;0.17;100.00;101260.03;5126418;27;20051;-33
2021/12/23 05:09:09;;;;;;;27.40;16.30;;;;;;;0.18;100.00;101250.75;5124319;27;20058;-36
2021/12/23 05:11:39;;;;;;;30.25;17.38;;;;;;;0.17;100.00;101243.56;5130986;27;20050;-35
2021/12/23 05:14:06;;;;;;;25.67;15.23;;;;;;;0.19;100.00;101248.84;5126250;27;20039;-31
2021/12/23 05:16:34;;;;;;;28.77;17.40;;;;;;;0.18;100.00;101234.28;5119642;27;20500;-36
2021/12/23 05:19:02;;;;;;;33.63;18.73;;;;;;;0.15;100.00;101233.88;5131013;27;20082;-33
2021/12/23 05:21:30;;;;;;;31.13;17.58;;;;;;;0.17;100.00;101238.06;5129293;27;20109;-36
2021/12/23 05:23:58;;;;;;;31.90;18.55;;;;;;;0.15;100.00;101231.97;5121775;27;20377;-38
2021/12/23 05:26:26;;;;;;;34.95;19.30;;;;;;;0.15;100.00;101234.72;5132462;27;20109;-31
2021/12/23 05:28:55;;;;;;;35.05;20.50;;;;;;;0.16;100.00;101228.16;5130385;27;20054;-34
2021/12/23 05:31:22;;;;;;;35.72;20.05;;;;;;;0.16;100.00;101221.84;5114762;27;20044;-32
2021/12/23 05:33:50;;;;;;;34.58;19.77;;;;;;;0.15;100.00;101223.75;5118395;27;20491;-41
2021/12/23 05:36:18;;;;;;;37.72;21.95;;;;;;;0.18;100.00;101226.03;5132391;27;20048;-35
2021/12/23 05:38:46;;;;;;;38.13;22.20;;;;;;;0.18;100.00;101227.94;5120222;27;20048;-27
2021/12/23 05:41:14;;;;;;;39.33;21.58;;;;;;;0.18;100.00;101230.69;5132232;27;20079;-30
2021/12/23 05:43:42;;;;;;;42.38;22.60;;;;;;;0.14;100.00;101224.81;5124444;27;20043;-34
2021/12/23 05:46:11;;;;;;;46.67;25.08;;;;;;;0.12;100.00;101218.69;5129820;27;20086;-34
2021/12/23 05:48:38;;;;;;;45.28;24.90;;;;;;;0.12;100.00;101217.84;5124897;27;20062;-36
2021/12/23 05:51:06;;;;;;;48.13;26.20;;;;;;;0.13;100.00;101206.66;5117802;27;20579;-30
2021/12/23 05:53:34;;;;;;;49.28;27.58;;;;;;;0.14;100.00;101211.09;5125245;27;20431;-35
2021/12/23 05:56:02;;;;;;;47.00;24.60;;;;;;;0.14;100.00;101208.34;5120844;27;20055;-33
2021/12/23 05:58:29;;;;;;;48.05;25.55;;;;;;;0.18;100.00;101208.75;5120813;27;20050;-33
2021/12/23 06:00:58;;;;;;;50.75;25.77;;;;;;;0.23;100.00;101211.63;5123857;27;20050;-31
2021/12/23 06:03:27;;;;;;;47.53;25.85;;;;;;;0.23;100.00;101214.38;5127677;27;20135;-37
2021/12/23 06:05:55;;;;;;;48.42;26.17;;;;;;;0.25;100.00;101209.50;5122206;27;20058;-36
2021/12/23 06:08:23;;;;;;;53.38;27.05;;;;;;;0.22;100.00;101210.78;5126810;27;20042;-28
2021/12/23 06:10:51;;;;;;;55.90;27.35;;;;;;;0.21;100.00;101206.38;5121601;27;20081;-38
2021/12/23 06:13:19;;;;;;;54.60;29.17;;;;;;;0.17;100.00;101196.91;5128811;27;20404;-33
2021/12/23 06:15:46;;;;;;;54.85;27.83;;;;;;;0.14;100.00;101191.88;5127842;27;20468;-31
2021/12/23 06:18:14;;;;;;;57.03;29.88;;;;;;;0.11;100.00;101188.72;5116406;27;20190;-32
2021/12/23 06:20:43;;;;;;;57.90;30.50;;;;;;;0.12;100.00;101179.44;5102464;27;20044;-32
2021/12/23 06:23:11;;;;;;;52.20;28.70;;;;;;;0.14;100.00;101174.56;5128091;27;20422;-32
2021/12/23 06:25:39;;;;;;;63.80;32.58;;;;;;;0.11;100.00;101170.38;5130620;27;20050;-37
2021/12/23 06:28:11;;;;;;;;;;;;;;;0.11;100.00;101164.88;5115993;27;20130;-37
2021/12/23 06:30:39;;;;;;;55.65;28.20;;;;;;;0.13;100.00;101156.44;5131551;27;19926;-30
2021/12/23 06:33:07;;;;;;;63.72;32.25;;;;;;;0.12;100.00;101152.84;5113291;27;20224;-36
2021/12/23 06:35:38;;;;;;;64.03;32.58;;;;;;;0.14;100.00;101155.38;5125946;27;20047;-33
2021/12/23 06:38:10;;;;;;;70.18;35.38;;;;;;;0.12;100.00;101152.84;5114685;27;20127;-32
2021/12/23 06:40:39;;;;;;;63.42;32.63;;;;;;;0.16;100.00;101147.75;5119482;27;20507;-31
2021/12/23 06:43:07;;;;;;;60.30;30.45;;;;;;;0.16;100.00;101156.81;5129202;27;20054;-34
2021/12/23 06:45:35;;;;;;;67.00;33.58;;;;;;;0.18;100.00;101156.59;5123802;27;20047;-31
2021/12/23 06:48:04;;;;;;;63.70;32.22;;;;;;;0.19;100.00;101153.63;5117307;27;20102;-38
2021/12/23 06:50:31;;;;;;;63.35;31.75;;;;;;;0.21;100.00;101164.34;5123747;27;20104;-37
2021/12/23 06:52:59;;;;;;;64.38;32.00;;;;;;;0.18;100.00;101156.59;5132733;27;20468;-37
2021/12/23 06:55:29;;;;;;;62.47;33.20;;;;;;;0.19;100.00;101164.63;5126233;27;20047;-31
2021/12/23 06:57:57;;;;;;;65.45;32.08;;;;;;;0.15;100.00;101157.88;5120694;27;20051;-28
2021/12/23 07:00:27;;;;;;;70.57;35.30;;;;;;;0.18;100.00;101159.34;5123313;27;20398;-36
2021/12/23 07:02:56;;;;;;;77.13;35.63;;;;;;;0.17;100.00;101154.91;5121172;27;20051;-33
2021/12/23 07:05:25;;;;;;;72.47;34.33;;;;;;;0.18;100.00;101151.94;5123263;27;20047;-32
2021/12/23 07:07:56;;;;;;;80.03;37.33;;;;;;;0.15;100.00;101157.03;5104109;28;20051;-35
2021/12/23 07:10:25;;;;;;;76.45;36.83;;;;;;;0.15;100.00;101148.81;5116167;27;20050;-34
2021/12/23 07:12:56;;;;;;;75.40;36.17;;;;;;;0.13;100.00;101146.28;5119567;27;20057;-32
2021/12/23 07:15:24;;;;;;;69.32;33.30;;;;;;;0.14;100.00;101150.72;5128496;27;20116;-34
2021/12/23 07:17:53;;;;;;;78.07;36.47;;;;;;;0.18;100.00;101153.84;5125052;27;20480;-37
2021/12/23 07:20:21;;;;;;;79.40;36.38;;;;;;;0.17;100.00;101142.03;5117068;27;20582;-29
2021/12/23 07:22:49;;;;;;;78.30;36.67;;;;;;;0.14;100.00;101141.66;5126012;27;20051;-36
2021/12/23 07:25:17;;;;;;;78.88;37.85;;;;;;;0.17;100.00;101143.94;5113234;27;20570;-37
2021/12/23 07:27:45;;;;;;;73.88;35.92;;;;;;;0.18;100.00;101135.50;5116678;27;20079;-40
2021/12/23 07:30:18;;;;;;;71.88;36.65;;;;;;;0.21;100.00;101135.00;5127145;27;20392;-36
2021/12/23 07:32:47;;;;;;;79.63;38.15;;;;;;;0.20;100.00;101127.03;5118358;27;20055;-36
2021/12/23 07:35:17;;;;;;;84.40;38.78;;;;;;;0.24;100.00;101125.50;5113073;27;20040;-31
2021/12/23 07:37:46;;;;;;;79.07;36.42;;;;;;;0.22;100.00;101122.97;5116996;27;20056;-34
2021/12/23 07:40:16;;;;;;;78.63;35.72;;;;;;;0.20;100.00;101113.31;5128589;27;20062;-37
2021/12/23 07:42:53;;;;;;;79.03;37.92;;;;;;;0.20;100.00;101110.56;5125602;28;20055;-37
2021/12/23 07:45:25;;;;;;;83.13;38.00;;;;;;;0.14;100.00;101104.06;5111919;28;20058;-32
2021/12/23 07:47:53;;;;;;;82.88;39.15;;;;;;;0.13;100.00;101098.81;5125406;28;20065;-35
2021/12/23 07:50:22;;;;;;;88.43;39.55;;;;;;;0.14;100.00;101103.22;5113115;28;20134;-33
2021/12/23 07:52:50;;;;;;;92.25;41.65;;;;;;;0.13;100.00;101107.88;5117834;28;20043;-33
2021/12/23 07:55:20;;;;;;;88.90;40.67;;;;;;;0.13;100.00;101102.38;5125676;28;20055;-32
2021/12/23 07:57:48;;;;;;;83.97;38.75;;;;;;;0.15;100.00;101110.41;5120682;28;20042;-34
2021/12/23 08:00:17;;;;;;;89.93;38.25;;;;;;;0.17;100.00;101108.28;5116247;28;20070;-33
2021/12/23 08:02:46;;;;;;;77.53;35.92;;;;;;;0.20;100.00;101094.09;5118381;28;20048;-34
2021/12/23 08:05:14;;;;;;;83.22;38.03;;;;;;;0.19;100.00;101098.75;5121581;28;20055;-34
2021/12/23 08:07:42;;;;;;;95.47;40.50;;;;;;;0.20;100.00;101094.91;5119080;28;20416;-37
2021/12/23 08:10:10;;;;;;;88.32;38.35;;;;;;;0.23;100.00;101099.97;5120073;28;20048;-33
2021/12/23 08:12:38;;;;;;;79.57;36.42;;;;;;;0.25;100.00;101094.25;5116399;28;20051;-32
2021/12/23 08:15:07;;;;;;;78.47;36.25;;;;;;;0.27;100.00;101097.59;5119874;27;20216;-32
2021/12/23 08:17:35;;;;;;;87.32;38.72;;;;;;;0.26;100.00;101082.22;5123618;27;20039;-33
2021/12/23 08:20:10;;;;;;;81.55;36.90;;;;;;;0.27;100.00;101081.97;5124050;27;20134;-34
2021/12/23 08:22:38;;;;;;;82.47;37.67;;;;;;;0.29;100.00;101068.88;5117120;27;20047;-35
2021/12/23 08:25:06;;;;;;;83.03;37.58;;;;;;;0.28;100.00;101064.44;5119373;27;20049;-38
2021/12/23 08:27:34;;;;;;;74.88;34.95;;;;;;;0.28;100.00;101069.94;5128881;27;20415;-35
2021/12/23 08:30:05;;;;;;;83.93;37.00;;;;;;;0.25;100.00;101050.34;5126062;27;20424;-30
2021/12/23 08:32:33;;;;;;;80.60;34.88;;;;;;;0.21;100.00;101049.94;5115610;27;20043;-35
2021/12/23 08:35:01;;;;;;;77.57;35.00;;;;;;;0.19;100.00;101043.88;5120928;27;20509;-30
2021/12/23 08:37:30;;;;;;;79.55;34.75;;;;;;;0.23;100.00;101039.59;5132617;27;20043;-30
2021/12/23 08:39:58;;;;;;;79.28;35.00;;;;;;;0.22;100.00;101037.06;5108124;27;20055;-36
2021/12/23 08:42:26;;;;;;;81.85;36.38;;;;;;;0.23;100.00;101050.56;5115509;27;20043;-30
2021/12/23 08:44:53;;;;;;;82.38;36.70;;;;;;;0.29;100.00;101048.81;5121075;27;20549;-31
2021/12/23 08:47:21;;;;;;;76.47;34.05;;;;;;;0.32;100.00;101048.38;5131705;27;20051;-33
2021/12/23 08:49:49;;;;;;;74.85;33.88;;;;;;;0.33;100.00;101048.16;5110124;27;20426;-35
2021/12/23 08:52:17;;;;;;;70.75;31.75;;;;;;;0.37;100.00;101043.06;5118954;27;20058;-34
2021/12/23 08:54:46;;;;;;;74.38;34.35;;;;;;;0.39;100.00;101045.56;5121206;27;20133;-36
2021/12/23 08:57:14;;;;;;;75.70;33.30;;;;;;;0.39;100.00;101040.91;5127873;27;20047;-35
2021/12/23 08:59:42;;;;;;;71.28;31.98;;;;;;;0.42;100.00;101036.84;5124804;27;20066;-37
2021/12/23 09:02:11;;;;;;;75.72;33.42;;;;;;;0.44;100.00;101024.59;5133976;27;20408;-34
2021/12/23 09:04:39;;;;;;;75.53;33.85;;;;;;;0.46;100.00;101021.63;5127074;27;20074;-29
2021/12/23 09:07:07;;;;;;;76.05;33.70;;;;;;;0.46;100.00;101010.63;5123862;27;20046;-34
2021/12/23 09:09:36;;;;;;;74.40;32.90;;;;;;;0.47;100.00;101015.06;5131128;27;20059;-35
2021/12/23 09:12:07;;;;;;;73.45;32.45;;;;;;;0.46;100.00;101011.47;5125633;27;20043;-37
2021/12/23 09:14:35;;;;;;;72.72;33.03;;;;;;;0.44;100.00;101007.28;5119899;27;20142;-30
2021/12/23 09:17:04;;;;;;;72.80;32.95;;;;;;;0.44;100.00;100999.03;5124654;27;20044;-32
2021/12/23 09:19:32;;;;;;;75.00;33.55;;;;;;;0.45;100.00;100993.31;5118731;27;20146;-37
2021/12/23 09:22:00;;;;;;;72.72;32.97;;;;;;;0.49;100.00;101001.94;5125375;27;20050;-34
2021/12/23 09:24:28;;;;;;;73.15;31.23;;;;;;;0.46;100.00;100994.16;5117522;27;20251;-38
2021/12/23 09:27:01;;;;;;;70.40;31.10;;;;;;;0.50;100.00;101000.88;5120657;27;20431;-34
2021/12/23 09:35:04;;;;;;;74.15;32.88;;;;;;;0.52;100.00;100996.00;5128588;27;20066;-33
2021/12/23 09:37:31;;;;;;;69.85;30.73;;;;;;;0.53;100.00;100989.44;5122380;27;20045;-35
2021/12/23 09:40:02;;;;;;;64.18;30.20;;;;;;;0.57;100.00;100996.16;5129706;27;20053;-38
2021/12/23 09:42:31;;;;;;;74.95;32.88;;;;;;;0.59;100.00;100988.53;5120993;27;20039;-35
2021/12/23 09:45:05;;;;;;;63.03;29.90;;;;;;;0.61;100.00;100980.88;5129093;27;20470;-37
2021/12/23 09:47:35;;;;;;;71.75;31.50;;;;;;;0.60;100.00;100980.03;5129862;27;20047;-35
2021/12/23 09:50:08;;;;;;;70.25;33.08;;;;;;;0.60;100.00;100968.25;5114315;27;20058;-35
2021/12/23 09:52:41;;;;;;;64.93;29.70;;;;;;;0.62;100.00;100972.41;5121486;27;20134;-37
2021/12/23 09:55:11;;;;;;;72.85;33.13;;;;;;;0.65;100.00;100965.63;5129386;27;20056;-38
2021/12/23 09:57:40;;;;;;;68.55;31.13;;;;;;;0.65;100.00;100971.09;5125938;27;20063;-34
2021/12/23 10:00:11;;;;;;;67.72;30.95;;;;;;;0.66;100.00;100967.28;5131302;27;20444;-33
2021/12/23 10:02:41;;;;;;;81.80;33.95;;;;;;;0.67;100.00;100964.31;5132295;27;20059;-36
2021/12/23 10:05:16;;;;;;;70.53;31.92;;;;;;;0.65;100.00;100944.50;5113293;27;20059;-38
2021/12/23 10:07:46;;;;;;;72.43;31.90;;;;;;;0.59;100.00;100936.34;5117542;27;20054;-35
2021/12/23 10:10:20;;;;;;;70.65;31.92;;;;;;;0.62;100.00;100938.63;5129869;27;20417;-35
2021/12/23 10:32:52;;;;;;;66.20;29.00;;;;;;;0.80;100.00;100940.50;5120214;27;20035;-29
2021/12/23 10:38:11;;;;;;;66.63;29.33;;;;;;;0.82;100.00;100919.94;5122026;27;20059;-30
2021/12/23 10:40:43;;;;;;;70.53;30.80;;;;;;;0.83;100.00;100915.28;5132150;27;20047;-42
2021/12/23 10:43:22;;;;;;;69.20;30.55;;;;;;;0.85;100.00;100921.41;5122682;27;20092;-37
2021/12/23 10:45:55;;;;;;;68.53;29.85;;;;;;;0.86;100.00;100918.41;5126455;27;20071;-35
2021/12/23 10:48:28;;;;;;;69.28;31.02;;;;;;;0.89;100.00;100917.97;5128960;27;20450;-38
2021/12/23 10:51:03;;;;;;;63.90;29.27;;;;;;;0.93;100.00;100912.84;5117435;27;20176;-34
2021/12/23 10:53:51;;;;;;;64.80;28.00;;;;;;;0.95;100.00;100900.53;5123069;27;20047;-30
2021/12/23 10:59:11;;;;;;;69.05;29.85;;;;;;;1.01;100.00;100905.06;5124141;27;20035;-33
2021/12/23 11:02:02;;;;;;;70.00;31.08;;;;;;;1.07;100.00;100891.47;5115695;27;20524;-32
2021/12/23 11:04:38;;;;;;;73.45;30.90;;;;;;;1.10;100.00;100902.00;5116708;27;20100;-36
2021/12/23 11:07:21;;;;;;;73.18;30.58;;;;;;;1.12;100.00;100897.94;5130130;27;20162;-35
2021/12/23 11:10:00;;;;;;;62.25;28.52;;;;;;;1.14;100.00;100890.31;5118946;27;20143;-35
2021/12/23 11:36:05;;;;;;;67.80;29.30;;;;;;;1.84;100.00;100837.19;5123986;27;20047;-37
2021/12/23 11:38:47;;;;;;;75.55;30.60;;;;;;;2.22;100.00;100818.19;5112420;27;20044;-37
2021/12/23 11:41:31;;;;;;;74.37;31.00;;;;;;;2.52;100.00;100806.94;5125034;27;20484;-32
2021/12/23 11:44:06;;;;;;;65.15;28.73;;;;;;;2.79;100.00;100785.09;5128953;28;20134;-39
2021/12/23 11:46:41;;;;;;;67.55;29.70;;;;;;;2.96;100.00;100796.94;5123712;28;20062;-32
2021/12/23 11:49:12;;;;;;;71.28;29.27;;;;;;;3.11;100.00;100799.94;5114051;27;20497;-40
2021/12/23 11:51:53;;;;;;;73.88;32.25;;;;;;;3.24;100.00;100797.91;5123171;27;20086;-37
2021/12/23 11:54:28;;;;;;;64.28;28.40;;;;;;;3.35;100.00;100792.31;5134591;27;20493;-36
2021/12/23 11:57:03;;;;;;;70.38;29.40;;;;;;;3.47;100.00;100787.53;5122672;27;20035;-35
2021/12/23 11:59:32;;;;;;;69.60;28.60;;;;;;;3.60;100.00;100780.78;5132093;27;20039;-32
2021/12/23 12:02:01;;;;;;;72.45;30.40;;;;;;;3.72;100.00;100777.94;5128302;27;20059;-36
2021/12/23 12:04:32;;;;;;;71.20;30.40;;;;;;;3.80;100.00;100771.94;5119011;27;20069;-35
2021/12/23 12:07:00;;;;;;;67.25;28.90;;;;;;;3.87;100.00;100764.31;5129643;27;20050;-35
2021/12/23 12:09:31;;;;;;;67.95;29.65;;;;;;;3.96;100.00;100770.25;5116176;27;20134;-38
2021/12/23 12:12:09;;;;;;;68.47;27.52;;;;;;;4.04;100.00;100753.19;5130267;27;20047;-37
2021/12/23 12:14:45;;;;;;;67.82;28.98;;;;;;;4.11;100.00;100738.09;5115911;27;20053;-40
2021/12/23 12:17:34;;;;;;;62.25;26.73;;;;;;;4.22;100.00;100733.50;5130537;27;20046;-36
2021/12/23 12:20:21;;;;;;;60.40;27.55;;;;;;;4.26;100.00;100729.13;5115420;27;20059;-39